createdAt,value
2018-07-25T00:02:12.617Z,101222.12
2018-07-25T00:04:39.532Z,101224.25
2018-07-25T00:07:06.442Z,101224.25
2018-07-25T00:09:33.344Z,101230.97
2018-07-25T00:12:00.241Z,101226.09
2018-07-25T00:14:27.151Z,101229.44
2018-07-25T00:16:54.017Z,101231.82
2018-07-25T00:19:20.932Z,101232.09
2018-07-25T00:21:47.849Z,101234.98
2018-07-25T00:24:14.764Z,101234.23
2018-07-25T00:26:41.669Z,101232.11
2018-07-25T00:29:08.585Z,101229.42
2018-07-25T00:31:35.497Z,101240.56
2018-07-25T00:34:02.420Z,101237.09
2018-07-25T00:36:29.309Z,101236.13
2018-07-25T00:38:56.216Z,101235.95
2018-07-25T00:41:23.124Z,101243.23
2018-07-25T00:43:50.025Z,101241.89
2018-07-25T00:46:16.934Z,101239.02
2018-07-25T00:48:43.853Z,101240.55
2018-07-25T00:51:10.756Z,101239.52
2018-07-25T00:53:37.709Z,101237.77
2018-07-25T00:56:04.633Z,101236.23
2018-07-25T00:58:31.547Z,101233.07
2018-07-25T01:00:58.494Z,101236.32
2018-07-25T01:03:25.392Z,101236.05
2018-07-25T01:05:52.297Z,101236.33
2018-07-25T01:08:19.219Z,101232.02
2018-07-25T01:10:46.116Z,101237.08
2018-07-25T01:13:13.035Z,101248.77
2018-07-25T01:15:40.144Z,101246.87
2018-07-25T01:18:07.276Z,101244.55
2018-07-25T01:20:34.208Z,101243.48
2018-07-25T01:23:01.120Z,101243.58
2018-07-25T01:25:28.017Z,101246.87
2018-07-25T01:27:54.913Z,101239.45
2018-07-25T01:30:21.840Z,101240.70
2018-07-25T01:32:48.729Z,101243.48
2018-07-25T01:35:15.625Z,101248.77
2018-07-25T01:37:42.523Z,101241.27
2018-07-25T01:40:09.432Z,101243.67
2018-07-25T01:42:36.337Z,101247.61
2018-07-25T01:45:03.360Z,101248.35
2018-07-25T01:47:30.249Z,101252.38
2018-07-25T01:49:57.180Z,101252.39
2018-07-25T01:52:24.091Z,101251.02
2018-07-25T01:54:51.015Z,101247.81
2018-07-25T01:57:17.922Z,101247.09
2018-07-25T01:59:44.822Z,101245.38
2018-07-25T02:02:11.729Z,101247.11
2018-07-25T02:04:38.636Z,101254.37
2018-07-25T02:07:05.537Z,101250.50
2018-07-25T02:09:32.478Z,101254.16
2018-07-25T02:11:59.367Z,101249.09
2018-07-25T02:14:26.268Z,101254.73
2018-07-25T02:16:53.191Z,101256.66
2018-07-25T02:19:20.101Z,101262.39
2018-07-25T02:21:47.013Z,101257.39
2018-07-25T02:24:13.904Z,101254.73
2018-07-25T02:26:40.824Z,101256.07
2018-07-25T02:29:08.226Z,101259.80
2018-07-25T02:31:35.136Z,101265.66
2018-07-25T02:34:07.860Z,101264.21
2018-07-25T02:36:34.764Z,101263.77
2018-07-25T02:39:01.660Z,101259.09
2018-07-25T02:41:28.562Z,101268.84
2018-07-25T02:43:55.456Z,101274.34
2018-07-25T02:46:22.353Z,101277.08
2018-07-25T02:48:49.245Z,101277.37
2018-07-25T02:51:16.137Z,101280.87
2018-07-25T02:53:43.032Z,101277.87
2018-07-25T02:56:09.928Z,101279.12
2018-07-25T02:58:36.825Z,101278.39
2018-07-25T03:01:03.764Z,101277.39
2018-07-25T03:03:30.658Z,101278.82
2018-07-25T03:05:57.623Z,101277.91
2018-07-25T03:08:24.525Z,101278.49
2018-07-25T03:10:53.727Z,101276.89
2018-07-25T03:13:21.044Z,101282.16
2018-07-25T03:16:01.198Z,101279.56
2018-07-25T03:18:28.464Z,101285.56
2018-07-25T03:20:55.486Z,101282.67
2018-07-25T03:23:22.488Z,101279.98
2018-07-25T03:25:49.409Z,101280.16
2018-07-25T03:28:16.325Z,101272.48
2018-07-25T03:30:43.261Z,101273.66
2018-07-25T03:33:10.260Z,101268.13
2018-07-25T03:35:37.201Z,101269.28
2018-07-25T03:38:04.252Z,101271.42
2018-07-25T03:40:31.211Z,101272.79
2018-07-25T03:42:58.137Z,101265.64
2018-07-25T03:45:25.065Z,101271.03
2018-07-25T03:47:52.008Z,101274.95
2018-07-25T03:50:18.933Z,101275.91
2018-07-25T03:52:45.879Z,101277.92
2018-07-25T03:55:12.809Z,101282.09
2018-07-25T03:57:39.729Z,101288.11
2018-07-25T04:00:06.661Z,101286.66
2018-07-25T04:02:33.625Z,101285.22
2018-07-25T04:05:00.520Z,101292.16
2018-07-25T04:07:27.444Z,101284.70
2018-07-25T04:09:54.358Z,101289.58
2018-07-25T04:12:21.304Z,101297.27
2018-07-25T04:14:48.253Z,101292.50
2018-07-25T04:17:15.164Z,101300.52
2018-07-25T04:19:42.093Z,101300.15
2018-07-25T04:22:09.048Z,101304.16
2018-07-25T04:24:36.063Z,101299.48
2018-07-25T04:27:02.981Z,101300.11
2018-07-25T04:29:29.924Z,101300.22
2018-07-25T04:31:56.836Z,101303.59
2018-07-25T04:34:23.744Z,101304.05
2018-07-25T04:36:50.685Z,101307.13
2018-07-25T04:39:17.627Z,101309.25
2018-07-25T04:41:44.587Z,101309.95
2018-07-25T04:44:11.489Z,101315.23
2018-07-25T04:46:38.633Z,101317.55
2018-07-25T04:49:05.489Z,101311.89
2018-07-25T04:51:32.397Z,101316.34
2018-07-25T04:53:59.316Z,101320.47
2018-07-25T04:56:26.245Z,101319.50
2018-07-25T04:58:53.192Z,101318.56
2018-07-25T05:01:20.139Z,101317.31
2018-07-25T05:03:47.068Z,101324.09
2018-07-25T05:06:13.987Z,101327.08
2018-07-25T05:08:41.375Z,101330.16
2018-07-25T05:11:08.307Z,101331.30
2018-07-25T05:13:35.212Z,101336.51
2018-07-25T05:16:02.134Z,101335.53
2018-07-25T05:18:29.073Z,101345.50
2018-07-25T05:20:55.996Z,101342.63
2018-07-25T05:23:22.993Z,101335.76
2018-07-25T05:25:49.911Z,101341.42
2018-07-25T05:28:16.866Z,101342.59
2018-07-25T05:30:43.789Z,101342.64
2018-07-25T05:33:10.733Z,101334.58
2018-07-25T05:35:37.661Z,101341.47
2018-07-25T05:38:04.594Z,101341.80
2018-07-25T05:40:31.509Z,101343.00
2018-07-25T05:42:58.456Z,101348.30
2018-07-25T05:45:25.441Z,101345.13
2018-07-25T05:47:52.384Z,101347.64
2018-07-25T05:50:19.300Z,101346.41
2018-07-25T05:52:46.210Z,101348.73
2018-07-25T05:55:13.120Z,101339.14
2018-07-25T05:57:40.033Z,101340.07
2018-07-25T06:00:06.980Z,101344.12
2018-07-25T06:02:33.897Z,101339.41
2018-07-25T06:05:00.896Z,101336.34
2018-07-25T06:07:27.832Z,101339.13
2018-07-25T06:09:54.724Z,101343.41
2018-07-25T06:12:21.688Z,101342.33
2018-07-25T06:14:48.604Z,101342.05
2018-07-25T06:17:15.533Z,101335.53
2018-07-25T06:19:42.429Z,101340.92
2018-07-25T06:22:09.387Z,101346.28
2018-07-25T06:24:36.307Z,101343.50
2018-07-25T06:27:03.237Z,101345.54
2018-07-25T06:29:30.188Z,101349.27
2018-07-25T06:31:57.131Z,101342.32
2018-07-25T06:34:24.060Z,101346.30
2018-07-25T06:36:51.175Z,101347.55
2018-07-25T06:39:18.085Z,101346.94
2018-07-25T06:41:45.008Z,101350.64
2018-07-25T06:44:11.933Z,101351.36
2018-07-25T06:46:38.920Z,101352.27
2018-07-25T06:49:06.738Z,101351.42
2018-07-25T06:51:33.664Z,101350.62
2018-07-25T06:54:00.613Z,101358.50
2018-07-25T06:56:27.552Z,101356.85
2018-07-25T06:58:54.508Z,101356.88
2018-07-25T07:01:21.473Z,101361.02
2018-07-25T07:03:48.425Z,101356.64
2018-07-25T07:06:15.361Z,101365.50
2018-07-25T07:08:42.308Z,101368.41
2018-07-25T07:11:09.244Z,101363.12
2018-07-25T07:13:36.165Z,101362.80
2018-07-25T07:16:03.101Z,101364.86
2018-07-25T07:18:30.030Z,101370.88
2018-07-25T07:20:56.948Z,101367.03
2018-07-25T07:23:23.913Z,101369.70
2018-07-25T07:25:50.909Z,101364.50
2018-07-25T07:28:17.808Z,101363.20
2018-07-25T07:30:44.720Z,101364.59
2018-07-25T07:33:11.663Z,101362.14
2018-07-25T07:35:38.819Z,101371.69
2018-07-25T07:38:05.810Z,101372.96
2018-07-25T07:40:32.744Z,101375.77
2018-07-25T07:42:59.658Z,101372.86
2018-07-25T07:45:26.585Z,101371.30
2018-07-25T07:47:53.534Z,101375.34
2018-07-25T07:50:20.470Z,101374.61
2018-07-25T07:52:47.388Z,101374.60
2018-07-25T07:55:14.311Z,101370.38
2018-07-25T07:57:41.227Z,101372.73
2018-07-25T08:00:08.210Z,101371.23
2018-07-25T08:02:35.546Z,101374.84
2018-07-25T08:05:02.626Z,101368.75
2018-07-25T08:07:29.556Z,101372.52
2018-07-25T08:09:56.496Z,101374.42
2018-07-25T08:12:23.436Z,101372.41
2018-07-25T08:14:50.370Z,101374.48
2018-07-25T08:17:17.291Z,101373.20
2018-07-25T08:19:44.261Z,101363.19
2018-07-25T08:22:11.132Z,101366.03
2018-07-25T08:24:38.055Z,101367.67
2018-07-25T08:27:04.981Z,101368.96
2018-07-25T08:29:31.925Z,101366.49
2018-07-25T08:31:59.628Z,101366.63
2018-07-25T08:34:26.613Z,101368.34
2018-07-25T08:36:53.488Z,101373.09
2018-07-25T08:39:20.416Z,101371.05
2018-07-25T08:41:47.358Z,101368.59
2018-07-25T08:44:14.301Z,101369.17
2018-07-25T08:46:41.269Z,101372.91
2018-07-25T08:49:08.216Z,101368.47
2018-07-25T08:51:35.124Z,101368.30
2018-07-25T08:54:02.083Z,101365.19
2018-07-25T08:56:29.047Z,101369.75
2018-07-25T08:58:56.020Z,101370.50
2018-07-25T09:01:23.281Z,101365.66
2018-07-25T09:03:50.228Z,101367.48
2018-07-25T09:06:17.190Z,101367.30
2018-07-25T09:08:45.098Z,101371.34
2018-07-25T09:11:12.088Z,101366.63
2018-07-25T09:13:39.037Z,101370.34
2018-07-25T09:16:06.111Z,101365.66
2018-07-25T09:18:33.067Z,101362.36
2018-07-25T09:21:00.017Z,101365.00
2018-07-25T09:23:26.928Z,101368.47
2018-07-25T09:25:53.892Z,101367.03
2018-07-25T09:28:20.840Z,101365.23
2018-07-25T09:30:47.811Z,101364.16
2018-07-25T09:33:14.744Z,101362.15
2018-07-25T09:35:41.692Z,101358.70
2018-07-25T09:38:08.604Z,101362.77
2018-07-25T09:40:35.540Z,101358.62
2018-07-25T09:43:02.483Z,101357.52
2018-07-25T09:45:29.420Z,101351.51
2018-07-25T09:47:56.348Z,101356.52
2018-07-25T09:50:23.332Z,101359.73
2018-07-25T09:52:50.296Z,101364.80
2018-07-25T09:55:17.232Z,101357.82
2018-07-25T09:57:44.161Z,101359.73
2018-07-25T10:00:12.382Z,101354.27
2018-07-25T10:02:40.011Z,101361.07
2018-07-25T10:05:07.706Z,101353.50
2018-07-25T10:07:34.773Z,101357.52
2018-07-25T10:10:01.653Z,101356.16
2018-07-25T10:12:28.644Z,101356.23
2018-07-25T10:14:55.731Z,101347.12
2018-07-25T10:17:22.640Z,101347.93
2018-07-25T10:19:49.604Z,101346.69
2018-07-25T10:22:16.528Z,101345.61
2018-07-25T10:24:43.506Z,101350.94
2018-07-25T10:27:10.507Z,101341.52
2018-07-25T10:29:37.377Z,101340.29
2018-07-25T10:32:04.467Z,101340.59
2018-07-25T10:34:31.361Z,101342.86
2018-07-25T10:36:58.278Z,101339.14
2018-07-25T10:39:25.228Z,101340.87
2018-07-25T10:41:52.170Z,101342.01
2018-07-25T10:44:19.185Z,101342.92
2018-07-25T10:46:46.128Z,101339.03
2018-07-25T10:49:13.045Z,101338.34
2018-07-25T10:51:39.997Z,101335.27
2018-07-25T10:54:06.919Z,101334.75
2018-07-25T10:56:33.865Z,101335.33
2018-07-25T10:59:00.796Z,101335.61
2018-07-25T11:01:27.739Z,101331.11
2018-07-25T11:03:54.686Z,101327.06
2018-07-25T11:06:21.655Z,101327.87
2018-07-25T11:08:48.704Z,101323.94
2018-07-25T11:11:15.672Z,101327.40
2018-07-25T11:13:42.628Z,101321.36
2018-07-25T11:16:09.620Z,101317.34
2018-07-25T11:18:36.632Z,101322.06
2018-07-25T11:21:03.565Z,101320.26
2018-07-25T11:23:30.477Z,101318.19
2018-07-25T11:25:57.421Z,101318.90
2018-07-25T11:28:24.717Z,101317.59
2018-07-25T11:30:51.650Z,101314.34
2018-07-25T11:33:18.733Z,101316.09
2018-07-25T11:35:45.653Z,101317.53
2018-07-25T11:38:12.604Z,101316.05
2018-07-25T11:40:39.528Z,101316.92
2018-07-25T11:43:06.486Z,101315.78
2018-07-25T11:45:33.416Z,101325.27
2018-07-25T11:48:00.352Z,101310.83
2018-07-25T11:50:27.374Z,101310.41
2018-07-25T11:52:54.557Z,101309.14
2018-07-25T11:55:21.487Z,101309.05
2018-07-25T11:57:48.405Z,101305.83
2018-07-25T12:00:15.367Z,101306.05
2018-07-25T12:02:42.317Z,101305.86
2018-07-25T12:05:09.237Z,101302.97
2018-07-25T12:07:36.148Z,101295.64
2018-07-25T12:10:03.348Z,101290.28
2018-07-25T12:12:30.284Z,101291.88
2018-07-25T12:14:57.213Z,101296.86
2018-07-25T12:17:24.164Z,101296.28
2018-07-25T12:19:51.100Z,101288.99
2018-07-25T12:22:18.043Z,101290.95
2018-07-25T12:24:44.950Z,101292.02
2018-07-25T12:27:11.882Z,101290.95
2018-07-25T12:29:38.809Z,101291.27
2018-07-25T12:32:05.830Z,101282.76
2018-07-25T12:34:32.724Z,101276.69
2018-07-25T12:36:59.709Z,101276.06
2018-07-25T12:39:26.668Z,101262.53
2018-07-25T12:41:53.621Z,101271.89
2018-07-25T12:44:20.561Z,101266.63
2018-07-25T12:46:47.509Z,101261.70
2018-07-25T12:49:14.448Z,101267.75
2018-07-25T12:51:41.373Z,101255.30
2018-07-25T12:54:08.340Z,101253.15
2018-07-25T12:56:35.220Z,101252.55
2018-07-25T12:59:02.165Z,101245.59
2018-07-25T13:01:29.092Z,101237.42
2018-07-25T13:03:56.017Z,101244.93
2018-07-25T13:06:22.940Z,101244.80
2018-07-25T13:08:49.907Z,101233.09
2018-07-25T13:11:16.832Z,101235.34
2018-07-25T13:13:43.760Z,101241.75
2018-07-25T13:16:10.693Z,101239.63
2018-07-25T13:18:38.021Z,101240.71
2018-07-25T13:21:04.996Z,101238.33
2018-07-25T13:23:31.937Z,101242.16
2018-07-25T13:25:58.868Z,101238.13
2018-07-25T13:28:25.918Z,101240.87
2018-07-25T13:30:52.761Z,101247.15
2018-07-25T13:33:19.690Z,101264.08
2018-07-25T13:35:46.608Z,101292.03
2018-07-25T13:38:13.555Z,101295.99
2018-07-25T13:40:40.492Z,101283.41
2018-07-25T13:43:07.437Z,101282.13
2018-07-25T13:45:34.487Z,101280.80
2018-07-25T13:48:01.294Z,101305.11
2018-07-25T13:50:28.220Z,101341.00
2018-07-25T13:52:55.145Z,101391.88
2018-07-25T13:55:22.071Z,101403.80
2018-07-25T13:57:49.007Z,101417.08
2018-07-25T14:00:15.931Z,101422.66
2018-07-25T14:02:42.854Z,101418.94
2018-07-25T14:05:09.832Z,101420.27
2018-07-25T14:07:36.700Z,101430.15
2018-07-25T14:10:04.247Z,101416.63
2018-07-25T14:12:31.152Z,101417.55
2018-07-25T14:14:58.101Z,101399.83
2018-07-25T14:17:25.028Z,101401.30
2018-07-25T14:19:51.969Z,101412.48
2018-07-25T14:22:18.952Z,101408.02
2018-07-25T14:24:45.885Z,101393.76
2018-07-25T14:27:12.908Z,101415.23
2018-07-25T14:29:39.769Z,101443.40
2018-07-25T14:32:06.917Z,101453.63
2018-07-25T14:34:33.868Z,101446.69
2018-07-25T14:37:00.816Z,101433.06
2018-07-25T14:39:27.786Z,101432.84
2018-07-25T14:41:54.709Z,101430.36
2018-07-25T14:44:21.636Z,101424.50
2018-07-25T14:46:48.585Z,101425.66
2018-07-25T14:49:15.504Z,101419.45
2018-07-25T14:51:42.437Z,101408.86
2018-07-25T14:54:09.428Z,101408.86
2018-07-25T14:56:36.369Z,101411.09
2018-07-25T14:59:03.297Z,101401.59
2018-07-25T15:01:30.233Z,101402.02
2018-07-25T15:03:57.180Z,101409.16
2018-07-25T15:06:24.114Z,101411.91
2018-07-25T15:08:51.045Z,101426.41
2018-07-25T15:11:17.957Z,101423.42
2018-07-25T15:13:44.922Z,101415.75
2018-07-25T15:16:11.848Z,101405.05
2018-07-25T15:18:38.792Z,101404.25
2018-07-25T15:21:05.995Z,101396.91
2018-07-25T15:23:44.547Z,101396.40
2018-07-25T15:26:11.357Z,101401.59
2018-07-25T15:28:38.317Z,101403.55
2018-07-25T15:31:05.246Z,101407.39
2018-07-25T15:33:32.268Z,101407.76
2018-07-25T15:35:59.195Z,101405.36
2018-07-25T15:38:26.133Z,101406.37
2018-07-25T15:40:53.088Z,101401.76
2018-07-25T15:43:20.033Z,101398.59
2018-07-25T15:45:47.092Z,101385.89
2018-07-25T15:48:14.105Z,101396.27
2018-07-25T15:50:41.060Z,101384.59
2018-07-25T15:53:08.038Z,101385.98
2018-07-25T15:55:34.988Z,101381.49
2018-07-25T15:58:01.922Z,101372.61
2018-07-25T16:00:28.857Z,101374.40
2018-07-25T16:02:55.773Z,101374.00
2018-07-25T16:05:22.764Z,101379.09
2018-07-25T16:07:49.757Z,101377.64
2018-07-25T16:10:16.737Z,101371.65
2018-07-25T16:12:43.708Z,101380.27
2018-07-25T16:15:10.707Z,101394.14
2018-07-25T16:17:37.669Z,101387.45
2018-07-25T16:20:04.689Z,101395.81
2018-07-25T16:22:31.633Z,101393.34
2018-07-25T16:24:58.620Z,101396.23
2018-07-25T16:27:25.592Z,101401.74
2018-07-25T16:29:52.537Z,101398.85
2018-07-25T16:32:19.529Z,101400.94
2018-07-25T16:34:46.485Z,101391.95
2018-07-25T16:37:13.441Z,101405.03
2018-07-25T16:39:40.420Z,101408.62
2018-07-25T16:42:07.384Z,101394.42
2018-07-25T16:44:34.345Z,101403.70
2018-07-25T16:47:01.316Z,101403.20
2018-07-25T16:49:28.258Z,101398.68
2018-07-25T16:51:55.247Z,101398.03
2018-07-25T16:54:22.189Z,101400.38
2018-07-25T16:56:49.142Z,101392.75
2018-07-25T16:59:16.047Z,101394.69
2018-07-25T17:01:42.972Z,101386.81
2018-07-25T17:04:09.917Z,101391.14
2018-07-25T17:06:36.881Z,101391.77
2018-07-25T17:09:06.553Z,101388.43
2018-07-25T17:11:33.512Z,101384.09
2018-07-25T17:14:00.444Z,101382.47
2018-07-25T17:16:27.389Z,101380.76
2018-07-25T17:18:54.338Z,101381.27
2018-07-25T17:21:21.272Z,101371.78
2018-07-25T17:23:48.205Z,101370.67
2018-07-25T17:26:15.149Z,101365.09
2018-07-25T17:28:42.112Z,101363.58
2018-07-25T17:31:09.074Z,101362.97
2018-07-25T17:33:36.024Z,101361.25
2018-07-25T17:36:02.989Z,101362.36
2018-07-25T17:38:29.918Z,101358.54
2018-07-25T17:40:56.853Z,101361.32
2018-07-25T17:43:23.816Z,101358.28
2018-07-25T17:45:50.772Z,101353.57
2018-07-25T17:48:17.723Z,101356.44
2018-07-25T17:50:44.686Z,101358.41
2018-07-25T17:53:13.189Z,101359.16
2018-07-25T17:55:40.129Z,101360.22
2018-07-25T17:58:07.101Z,101373.91
2018-07-25T18:00:34.048Z,101366.22
2018-07-25T18:03:00.985Z,101372.23
2018-07-25T18:05:27.929Z,101371.72
2018-07-25T18:07:54.854Z,101376.45
2018-07-25T18:10:21.802Z,101377.70
2018-07-25T18:12:48.767Z,101379.55
2018-07-25T18:15:15.700Z,101382.15
2018-07-25T18:17:42.604Z,101377.09
2018-07-25T18:20:09.550Z,101385.97
2018-07-25T18:22:36.468Z,101396.56
2018-07-25T18:25:03.752Z,101397.06
2018-07-25T18:27:30.768Z,101400.99
2018-07-25T18:29:57.799Z,101398.66
2018-07-25T18:32:24.758Z,101401.50
2018-07-25T18:34:51.720Z,101401.11
2018-07-25T18:37:19.479Z,101404.45
2018-07-25T18:39:46.465Z,101403.95
2018-07-25T18:42:13.407Z,101399.04
2018-07-25T18:44:40.340Z,101405.45
2018-07-25T18:47:07.382Z,101402.00
2018-07-25T18:49:34.277Z,101401.25
2018-07-25T18:52:01.229Z,101408.76
2018-07-25T18:54:28.366Z,101412.08
2018-07-25T18:56:55.318Z,101412.08
2018-07-25T18:59:22.570Z,101413.56
2018-07-25T19:01:49.691Z,101414.05
2018-07-25T19:04:16.712Z,101409.23
2018-07-25T19:06:43.654Z,101407.81
2018-07-25T19:09:15.140Z,101406.34
2018-07-25T19:11:42.109Z,101408.42
2018-07-25T19:14:15.087Z,101408.89
2018-07-25T19:16:42.023Z,101409.69
2018-07-25T19:19:09.595Z,101410.73
2018-07-25T19:21:36.596Z,101415.16
2018-07-25T19:24:03.509Z,101416.72
2018-07-25T19:26:30.420Z,101412.72
2018-07-25T19:28:57.464Z,101413.49
2018-07-25T19:31:24.473Z,101420.84
2018-07-25T19:33:51.398Z,101414.84
2018-07-25T19:36:18.353Z,101419.84
2018-07-25T19:38:45.253Z,101421.61
2018-07-25T19:41:12.188Z,101417.66
2018-07-25T19:43:39.088Z,101426.09
2018-07-25T19:46:06.019Z,101422.11
2018-07-25T19:48:32.929Z,101421.23
2018-07-25T19:50:59.964Z,101420.31
2018-07-25T19:53:26.924Z,101417.17
2018-07-25T19:55:53.868Z,101424.44
2018-07-25T19:58:20.876Z,101411.84
2018-07-25T20:00:47.833Z,101412.12
2018-07-25T20:03:14.814Z,101414.88
2018-07-25T20:05:41.756Z,101412.39
2018-07-25T20:08:08.724Z,101408.44
2018-07-25T20:10:35.628Z,101412.33
2018-07-25T20:13:02.561Z,101416.59
2018-07-25T20:15:35.114Z,101419.39
2018-07-25T20:18:02.094Z,101419.48
2018-07-25T20:20:28.985Z,101419.80
2018-07-25T20:22:55.932Z,101420.34
2018-07-25T20:25:22.854Z,101427.03
2018-07-25T20:27:49.877Z,101427.82
2018-07-25T20:30:16.804Z,101423.98
2018-07-25T20:32:43.721Z,101435.11
2018-07-25T20:35:10.645Z,101433.02
2018-07-25T20:37:37.656Z,101424.17
2018-07-25T20:40:04.898Z,101424.88
2018-07-25T20:42:31.821Z,101427.02
2018-07-25T20:44:58.763Z,101432.00
2018-07-25T20:47:25.681Z,101430.63
2018-07-25T20:49:52.597Z,101432.88
2018-07-25T20:52:19.545Z,101430.07
2018-07-25T20:54:46.444Z,101437.80
2018-07-25T20:57:13.360Z,101435.57
2018-07-25T20:59:40.297Z,101439.73
2018-07-25T21:02:07.309Z,101446.05
2018-07-25T21:04:34.222Z,101450.83
2018-07-25T21:07:01.237Z,101447.70
2018-07-25T21:09:28.155Z,101440.85
2018-07-25T21:11:55.084Z,101447.33
2018-07-25T21:14:22.012Z,101441.62
2018-07-25T21:16:48.933Z,101452.81
2018-07-25T21:19:15.827Z,101455.11
2018-07-25T21:21:42.803Z,101456.22
2018-07-25T21:24:09.689Z,101454.86
2018-07-25T21:26:36.579Z,101459.58
2018-07-25T21:29:03.589Z,101459.98
2018-07-25T21:31:30.500Z,101464.69
2018-07-25T21:33:57.430Z,101469.44
2018-07-25T21:36:24.353Z,101471.45
2018-07-25T21:38:51.284Z,101473.27
2018-07-25T21:41:18.177Z,101480.49
2018-07-25T21:43:45.089Z,101469.99
2018-07-25T21:46:12.009Z,101469.03
2018-07-25T21:48:38.910Z,101478.77
2018-07-25T21:51:05.987Z,101475.39
2018-07-25T21:53:32.853Z,101479.16
2018-07-25T21:55:59.760Z,101484.25
2018-07-25T21:58:26.697Z,101485.59
2018-07-25T22:00:55.886Z,101491.65
2018-07-25T22:03:22.837Z,101482.98
2018-07-25T22:05:49.763Z,101485.17
2018-07-25T22:08:16.688Z,101487.02
2018-07-25T22:10:43.596Z,101488.53
2018-07-25T22:13:10.537Z,101492.29
2018-07-25T22:15:37.465Z,101497.40
2018-07-25T22:18:04.636Z,101489.70
2018-07-25T22:20:31.573Z,101498.93
2018-07-25T22:22:58.489Z,101498.52
2018-07-25T22:25:25.384Z,101494.58
2018-07-25T22:27:52.314Z,101502.56
2018-07-25T22:30:19.297Z,101507.25
2018-07-25T22:32:46.177Z,101508.22
2018-07-25T22:35:13.121Z,101518.06
2018-07-25T22:37:40.070Z,101524.80
2018-07-25T22:40:06.981Z,101527.08
2018-07-25T22:42:33.955Z,101525.16
2018-07-25T22:45:00.885Z,101524.75
2018-07-25T22:47:27.788Z,101522.75
2018-07-25T22:49:54.737Z,101527.45
2018-07-25T22:52:21.648Z,101524.38
2018-07-25T22:54:48.858Z,101526.28
2018-07-25T22:57:15.760Z,101524.05
2018-07-25T22:59:43.184Z,101529.34
2018-07-25T23:02:10.169Z,101526.23
2018-07-25T23:04:37.073Z,101525.30
2018-07-25T23:07:05.313Z,101532.50
2018-07-25T23:09:32.991Z,101528.45
2018-07-25T23:12:00.618Z,101531.51
2018-07-25T23:14:27.560Z,101532.77
2018-07-25T23:16:54.487Z,101531.28
2018-07-25T23:19:22.155Z,101521.66
2018-07-25T23:21:49.096Z,101524.83
2018-07-25T23:24:16.726Z,101523.48
2018-07-25T23:26:46.644Z,101528.86
2018-07-25T23:29:13.616Z,101530.70
2018-07-25T23:31:40.535Z,101526.76
2018-07-25T23:34:07.469Z,101528.66
2018-07-25T23:36:34.380Z,101528.43
2018-07-25T23:39:01.290Z,101522.06
2018-07-25T23:41:28.829Z,101527.03
2018-07-25T23:43:55.792Z,101526.67
2018-07-25T23:46:22.697Z,101525.33
2018-07-25T23:48:49.633Z,101526.77
2018-07-25T23:51:16.565Z,101532.14
2018-07-25T23:53:43.688Z,101526.20
2018-07-25T23:56:10.597Z,101521.65
2018-07-25T23:58:38.596Z,101518.78
